createdAt,value
2018-05-17T00:02:16.622Z,5.40
2018-05-17T00:04:44.787Z,4.80
2018-05-17T00:07:12.957Z,5.87
2018-05-17T00:09:41.136Z,5.40
2018-05-17T00:12:09.325Z,4.70
2018-05-17T00:14:37.501Z,5.40
2018-05-17T00:17:05.669Z,5.60
2018-05-17T00:19:33.851Z,5.67
2018-05-17T00:22:02.026Z,5.47
2018-05-17T00:24:30.192Z,6.10
2018-05-17T00:26:58.377Z,5.80
2018-05-17T00:29:26.550Z,6.53
2018-05-17T00:31:54.725Z,6.80
2018-05-17T00:34:22.886Z,7.03
2018-05-17T00:36:51.057Z,7.30
2018-05-17T00:39:19.260Z,5.60
2018-05-17T00:41:47.426Z,4.83
2018-05-17T00:44:15.599Z,4.90
2018-05-17T00:46:43.777Z,4.83
2018-05-17T00:49:11.949Z,4.97
2018-05-17T00:51:40.137Z,4.40
2018-05-17T00:54:08.302Z,4.87
2018-05-17T00:56:36.478Z,20.13
2018-05-17T00:59:04.652Z,7.40
2018-05-17T01:01:32.829Z,5.77
2018-05-17T01:04:00.997Z,5.00
2018-05-17T01:06:29.175Z,5.37
2018-05-17T01:08:57.352Z,5.10
2018-05-17T01:11:25.530Z,5.83
2018-05-17T01:13:53.712Z,5.80
2018-05-17T01:16:21.882Z,6.20
2018-05-17T01:18:50.053Z,6.67
2018-05-17T01:21:18.221Z,6.20
2018-05-17T01:23:46.386Z,5.60
2018-05-17T01:26:14.572Z,6.93
2018-05-17T01:28:42.749Z,5.83
2018-05-17T01:31:10.916Z,5.90
2018-05-17T01:33:39.098Z,6.20
2018-05-17T01:36:07.273Z,6.23
2018-05-17T01:38:35.448Z,5.90
2018-05-17T01:41:03.621Z,5.37
2018-05-17T01:43:31.801Z,5.77
2018-05-17T01:45:59.969Z,5.90
2018-05-17T01:48:28.137Z,6.20
2018-05-17T01:50:56.305Z,5.33
2018-05-17T01:53:24.481Z,6.20
2018-05-17T01:55:52.658Z,6.23
2018-05-17T01:58:20.836Z,6.00
2018-05-17T02:00:49.023Z,5.10
2018-05-17T02:03:17.184Z,6.03
2018-05-17T02:05:45.353Z,5.80
2018-05-17T02:08:13.530Z,5.70
2018-05-17T02:10:41.740Z,5.70
2018-05-17T02:13:09.918Z,5.53
2018-05-17T02:15:38.086Z,5.53
2018-05-17T02:18:06.339Z,5.67
2018-05-17T02:20:34.504Z,5.57
2018-05-17T02:23:02.679Z,5.80
2018-05-17T02:25:30.850Z,5.97
2018-05-17T02:27:59.021Z,6.03
2018-05-17T02:30:27.190Z,6.10
2018-05-17T02:32:55.358Z,6.30
2018-05-17T02:35:23.533Z,6.00
2018-05-17T02:37:51.706Z,6.97
2018-05-17T02:40:19.891Z,5.93
2018-05-17T02:42:48.081Z,5.63
2018-05-17T02:45:16.256Z,5.53
2018-05-17T02:47:44.437Z,5.67
2018-05-17T02:50:12.609Z,5.83
2018-05-17T02:52:40.789Z,5.83
2018-05-17T02:55:08.980Z,5.90
2018-05-17T02:57:37.154Z,6.37
2018-05-17T03:00:05.321Z,6.03
2018-05-17T03:02:33.487Z,6.40
2018-05-17T03:05:01.658Z,6.13
2018-05-17T03:07:29.826Z,6.10
2018-05-17T03:09:57.992Z,6.43
2018-05-17T03:12:26.158Z,7.43
2018-05-17T03:14:54.329Z,6.53
2018-05-17T03:17:22.509Z,6.30
2018-05-17T03:19:50.675Z,6.37
2018-05-17T03:22:18.866Z,6.20
2018-05-17T03:24:47.041Z,6.60
2018-05-17T03:27:15.201Z,6.00
2018-05-17T03:29:43.380Z,6.80
2018-05-17T03:32:11.545Z,7.10
2018-05-17T03:34:39.721Z,6.57
2018-05-17T03:37:07.893Z,6.30
2018-05-17T03:39:36.069Z,6.67
2018-05-17T03:42:04.278Z,5.97
2018-05-17T03:44:32.441Z,6.63
2018-05-17T03:47:00.614Z,6.50
2018-05-17T03:49:28.789Z,5.90
2018-05-17T03:51:56.965Z,6.37
2018-05-17T03:54:25.120Z,6.40
2018-05-17T03:56:53.281Z,6.40
2018-05-17T03:59:22.225Z,6.57
2018-05-17T04:02:08.339Z,6.10
2018-05-17T04:04:55.233Z,6.40
2018-05-17T04:07:23.413Z,6.40
2018-05-17T04:09:51.578Z,6.53
2018-05-17T04:12:19.737Z,5.80
2018-05-17T04:14:47.907Z,6.63
2018-05-17T04:17:16.078Z,6.90
2018-05-17T04:19:44.253Z,5.93
2018-05-17T04:22:12.422Z,6.00
2018-05-17T04:24:40.600Z,6.40
2018-05-17T04:27:08.771Z,6.13
2018-05-17T04:29:36.937Z,6.00
2018-05-17T04:32:05.110Z,6.40
2018-05-17T04:34:34.068Z,6.47
2018-05-17T04:37:02.241Z,6.60
2018-05-17T04:39:30.413Z,6.50
2018-05-17T04:41:58.589Z,6.83
2018-05-17T04:44:26.785Z,10.60
2018-05-17T04:46:55.725Z,12.33
2018-05-17T04:49:23.909Z,12.53
2018-05-17T04:51:52.078Z,7.90
2018-05-17T04:54:20.250Z,6.00
2018-05-17T04:56:48.421Z,7.20
2018-05-17T04:59:16.599Z,6.13
2018-05-17T05:01:44.805Z,8.23
2018-05-17T05:04:12.982Z,6.23
2018-05-17T05:06:41.148Z,7.10
2018-05-17T05:09:10.217Z,6.37
2018-05-17T05:11:38.400Z,7.77
2018-05-17T05:14:06.572Z,6.63
2018-05-17T05:16:34.738Z,5.80
2018-05-17T05:19:02.922Z,6.70
2018-05-17T05:21:31.088Z,7.20
2018-05-17T05:23:59.260Z,6.13
2018-05-17T05:26:27.438Z,6.87
2018-05-17T05:28:55.704Z,6.50
2018-05-17T05:31:23.878Z,6.90
2018-05-17T05:33:52.037Z,5.87
2018-05-17T05:36:20.231Z,5.60
2018-05-17T05:38:48.396Z,5.50
2018-05-17T05:41:16.574Z,6.00
2018-05-17T05:43:44.860Z,5.30
2018-05-17T05:46:13.030Z,6.93
2018-05-17T05:48:41.224Z,6.17
2018-05-17T05:51:09.429Z,5.77
2018-05-17T05:53:37.618Z,5.80
2018-05-17T05:56:06.577Z,5.60
2018-05-17T05:58:34.771Z,6.50
2018-05-17T06:01:03.139Z,5.43
2018-05-17T06:03:31.308Z,5.40
2018-05-17T06:05:59.484Z,5.63
2018-05-17T06:08:27.763Z,5.60
2018-05-17T06:10:56.637Z,5.50
2018-05-17T06:13:24.801Z,5.10
2018-05-17T06:15:52.982Z,5.63
2018-05-17T06:18:21.174Z,4.97
2018-05-17T06:20:49.360Z,6.00
2018-05-17T06:23:17.540Z,6.23
2018-05-17T06:25:46.568Z,5.73
2018-05-17T06:28:15.010Z,5.20
2018-05-17T06:30:43.217Z,4.60
2018-05-17T06:33:11.389Z,5.00
2018-05-17T06:35:39.564Z,4.53
2018-05-17T06:38:07.865Z,4.30
2018-05-17T06:40:36.041Z,4.80
2018-05-17T06:43:04.215Z,4.70
2018-05-17T06:45:32.397Z,5.20
2018-05-17T06:48:00.565Z,4.20
2018-05-17T06:50:29.486Z,5.53
2018-05-17T06:52:57.780Z,4.73
2018-05-17T06:55:25.960Z,3.83
2018-05-17T06:57:54.983Z,4.70
2018-05-17T07:00:23.162Z,4.03
2018-05-17T07:02:51.351Z,3.70
2018-05-17T07:05:19.584Z,4.17
2018-05-17T07:07:48.530Z,3.73
2018-05-17T07:10:16.705Z,3.53
2018-05-17T07:12:44.892Z,2.67
2018-05-17T07:15:13.065Z,2.83
2018-05-17T07:17:41.266Z,3.20
2018-05-17T07:20:09.469Z,2.93
2018-05-17T07:22:37.657Z,2.40
2018-05-17T07:25:05.838Z,3.50
2018-05-17T07:27:34.270Z,2.07
2018-05-17T07:30:03.213Z,2.00
2018-05-17T07:32:31.409Z,2.23
2018-05-17T07:34:59.572Z,2.13
2018-05-17T07:37:27.755Z,3.00
2018-05-17T07:39:55.925Z,2.23
2018-05-17T07:42:24.091Z,2.30
2018-05-17T07:44:52.265Z,2.03
2018-05-17T07:47:20.510Z,2.57
2018-05-17T07:49:48.634Z,1.80
2018-05-17T07:52:16.809Z,1.90
2018-05-17T07:54:45.011Z,1.80
2018-05-17T07:57:14.024Z,2.00
2018-05-17T07:59:43.674Z,1.50
2018-05-17T08:02:11.851Z,1.63
2018-05-17T08:04:40.026Z,1.40
2018-05-17T08:07:08.553Z,1.83
2018-05-17T08:09:37.741Z,1.83
2018-05-17T08:12:05.921Z,1.83
2018-05-17T08:14:34.877Z,1.90
2018-05-17T08:17:03.048Z,1.60
2018-05-17T08:19:31.222Z,1.67
2018-05-17T08:21:59.401Z,1.70
2018-05-17T08:24:27.573Z,1.90
2018-05-17T08:26:55.989Z,1.80
2018-05-17T08:29:24.161Z,1.97
2018-05-17T08:31:52.341Z,2.33
2018-05-17T08:34:21.288Z,2.33
2018-05-17T08:36:49.559Z,2.47
2018-05-17T08:39:17.650Z,1.90
2018-05-17T08:41:45.841Z,2.00
2018-05-17T08:44:14.019Z,1.83
2018-05-17T08:46:42.202Z,1.70
2018-05-17T08:49:10.377Z,1.53
2018-05-17T08:51:38.561Z,1.87
2018-05-17T08:54:07.500Z,2.00
2018-05-17T08:56:35.675Z,4.50
2018-05-17T08:59:04.226Z,1.70
2018-05-17T09:01:33.156Z,5.50
2018-05-17T09:04:01.332Z,1.80
2018-05-17T09:06:29.505Z,1.83
2018-05-17T09:08:57.687Z,1.70
2018-05-17T09:11:25.872Z,2.10
2018-05-17T09:13:54.076Z,1.80
2018-05-17T09:16:23.015Z,2.30
2018-05-17T09:18:51.197Z,1.90
2018-05-17T09:21:19.372Z,3.03
2018-05-17T09:23:47.539Z,2.63
2018-05-17T09:26:15.718Z,1.87
2018-05-17T09:28:43.885Z,2.70
2018-05-17T09:31:12.055Z,2.37
2018-05-17T09:33:40.220Z,2.40
2018-05-17T09:36:08.397Z,2.27
2018-05-17T09:38:36.572Z,1.80
2018-05-17T09:41:04.736Z,3.03
2018-05-17T09:43:32.941Z,2.07
2018-05-17T09:46:01.118Z,2.13
2018-05-17T09:48:29.285Z,2.20
2018-05-17T09:50:57.450Z,2.13
2018-05-17T09:53:25.625Z,2.00
2018-05-17T09:55:54.072Z,2.00
2018-05-17T09:58:23.013Z,2.20
2018-05-17T10:00:51.177Z,2.50
2018-05-17T10:03:19.367Z,1.97
2018-05-17T10:05:47.543Z,1.77
2018-05-17T10:08:15.718Z,2.00
2018-05-17T10:10:43.880Z,2.10
2018-05-17T10:13:12.820Z,1.80
2018-05-17T10:15:41.758Z,1.80
2018-05-17T10:18:09.931Z,2.00
2018-05-17T10:20:38.099Z,1.93
2018-05-17T10:23:06.370Z,1.87
2018-05-17T10:25:34.469Z,2.13
2018-05-17T10:28:02.641Z,1.60
2018-05-17T10:30:30.884Z,1.70
2018-05-17T10:32:59.839Z,2.03
2018-05-17T10:35:28.034Z,2.10
2018-05-17T10:37:56.981Z,1.77
2018-05-17T10:40:25.153Z,1.80
2018-05-17T10:42:53.328Z,2.10
2018-05-17T10:45:21.532Z,1.70
2018-05-17T10:47:49.705Z,1.60
2018-05-17T10:50:17.960Z,1.80
2018-05-17T10:52:46.130Z,2.23
2018-05-17T10:55:14.312Z,1.87
2018-05-17T10:57:42.473Z,2.20
2018-05-17T11:00:10.645Z,1.93
2018-05-17T11:02:38.910Z,2.17
2018-05-17T11:05:06.997Z,2.10
2018-05-17T11:07:35.165Z,3.13
2018-05-17T11:10:03.339Z,2.50
2018-05-17T11:12:31.502Z,1.83
2018-05-17T11:14:59.685Z,2.37
2018-05-17T11:17:27.841Z,1.83
2018-05-17T11:19:56.016Z,2.60
2018-05-17T11:22:24.220Z,2.43
2018-05-17T11:24:52.389Z,1.93
2018-05-17T11:27:20.573Z,2.17
2018-05-17T11:29:48.738Z,2.33
2018-05-17T11:32:16.929Z,2.17
2018-05-17T11:34:45.093Z,2.23
2018-05-17T11:37:13.268Z,2.97
2018-05-17T11:39:41.432Z,2.40
2018-05-17T11:42:09.603Z,7.43
2018-05-17T11:44:37.762Z,3.60
2018-05-17T11:47:05.929Z,3.47
2018-05-17T11:49:34.876Z,4.53
2018-05-17T11:52:03.049Z,2.80
2018-05-17T11:54:31.228Z,2.50
2018-05-17T11:56:59.395Z,2.40
2018-05-17T11:59:27.563Z,2.43
2018-05-17T12:01:55.729Z,2.40
2018-05-17T12:04:23.906Z,2.17
2018-05-17T12:06:52.068Z,2.03
2018-05-17T12:09:20.262Z,2.47
2018-05-17T12:11:48.435Z,2.17
2018-05-17T12:14:16.611Z,2.33
2018-05-17T12:16:44.787Z,3.80
2018-05-17T12:19:12.971Z,3.00
2018-05-17T12:21:41.142Z,3.60
2018-05-17T12:24:09.318Z,2.40
2018-05-17T12:26:37.528Z,2.50
2018-05-17T12:29:06.459Z,3.40
2018-05-17T12:31:34.682Z,4.10
2018-05-17T12:34:02.808Z,5.03
2018-05-17T12:36:30.981Z,2.63
2018-05-17T12:38:59.169Z,3.83
2018-05-17T12:41:27.345Z,2.73
2018-05-17T12:43:55.514Z,2.70
2018-05-17T12:46:23.690Z,2.40
2018-05-17T12:48:51.861Z,2.60
2018-05-17T12:51:20.044Z,2.53
2018-05-17T12:53:48.209Z,2.90
2018-05-17T12:56:16.413Z,2.63
2018-05-17T12:58:44.718Z,3.20
2018-05-17T13:01:12.836Z,2.47
2018-05-17T13:03:41.011Z,2.33
2018-05-17T13:06:09.188Z,2.60
2018-05-17T13:08:37.357Z,2.27
2018-05-17T13:11:05.539Z,2.47
2018-05-17T13:13:33.702Z,1.90
2018-05-17T13:16:01.895Z,2.20
2018-05-17T13:18:30.095Z,2.33
2018-05-17T13:20:58.264Z,1.93
2018-05-17T13:23:26.442Z,1.97
2018-05-17T13:25:56.157Z,2.27
2018-05-17T13:28:24.331Z,5.20
2018-05-17T13:30:52.513Z,3.13
2018-05-17T13:33:21.461Z,3.60
2018-05-17T13:35:49.629Z,2.70
2018-05-17T13:38:17.797Z,2.33
2018-05-17T13:40:45.976Z,2.80
2018-05-17T13:43:14.190Z,2.47
2018-05-17T13:45:42.356Z,2.97
2018-05-17T13:48:10.527Z,2.40
2018-05-17T13:50:38.693Z,2.47
2018-05-17T13:53:06.931Z,2.30
2018-05-17T13:55:35.102Z,2.90
2018-05-17T13:58:03.305Z,2.90
2018-05-17T14:00:31.485Z,2.40
2018-05-17T14:02:59.657Z,2.10
2018-05-17T14:05:27.835Z,2.70
2018-05-17T14:07:56.018Z,2.20
2018-05-17T14:10:24.204Z,2.30
2018-05-17T14:12:52.370Z,2.57
2018-05-17T14:15:20.669Z,2.40
2018-05-17T14:17:48.726Z,2.30
2018-05-17T14:20:16.895Z,2.23
2018-05-17T14:22:45.061Z,2.40
2018-05-17T14:25:13.245Z,2.83
2018-05-17T14:27:41.425Z,2.87
2018-05-17T14:30:09.591Z,3.10
2018-05-17T14:32:37.801Z,4.03
2018-05-17T14:35:06.741Z,2.90
2018-05-17T14:37:34.919Z,3.00
2018-05-17T14:40:03.083Z,3.07
2018-05-17T14:42:31.247Z,2.60
2018-05-17T14:44:59.430Z,2.40
2018-05-17T14:47:27.612Z,5.20
2018-05-17T14:49:55.793Z,3.80
2018-05-17T14:52:23.956Z,2.57
2018-05-17T14:54:52.208Z,2.97
2018-05-17T14:57:20.304Z,3.80
2018-05-17T14:59:48.473Z,2.80
2018-05-17T15:02:16.731Z,2.30
2018-05-17T15:04:44.898Z,2.13
2018-05-17T15:07:13.829Z,2.13
2018-05-17T15:09:42.004Z,2.57
2018-05-17T15:12:10.170Z,2.87
2018-05-17T15:14:38.353Z,2.73
2018-05-17T15:17:07.285Z,3.00
2018-05-17T15:19:36.245Z,2.90
2018-05-17T15:22:04.417Z,3.00
2018-05-17T15:24:32.680Z,2.90
2018-05-17T15:27:01.590Z,3.80
2018-05-17T15:29:29.781Z,2.80
2018-05-17T15:31:57.945Z,2.73
2018-05-17T15:34:26.116Z,2.97
2018-05-17T15:36:54.287Z,3.30
2018-05-17T15:39:22.452Z,3.27
2018-05-17T15:41:50.632Z,3.13
2018-05-17T15:44:18.793Z,3.13
2018-05-17T15:46:46.956Z,2.90
2018-05-17T15:49:15.117Z,3.17
2018-05-17T15:51:43.300Z,3.10
2018-05-17T15:54:11.473Z,2.17
2018-05-17T15:56:39.645Z,2.60
2018-05-17T15:59:07.817Z,2.83
2018-05-17T16:01:35.985Z,3.07
2018-05-17T16:04:04.926Z,2.70
2018-05-17T16:06:33.114Z,2.77
2018-05-17T16:09:01.290Z,2.53
2018-05-17T16:11:30.230Z,3.20
2018-05-17T16:13:58.396Z,3.07
2018-05-17T16:16:26.665Z,3.30
2018-05-17T16:18:55.676Z,2.77
2018-05-17T16:21:23.877Z,3.00
2018-05-17T16:23:52.128Z,2.90
2018-05-17T16:26:20.350Z,2.80
2018-05-17T16:28:48.565Z,2.37
2018-05-17T16:31:17.604Z,2.70
2018-05-17T16:33:46.882Z,2.80
2018-05-17T16:36:15.076Z,2.37
2018-05-17T16:38:43.270Z,2.43
2018-05-17T16:41:11.565Z,5.63
2018-05-17T16:43:39.746Z,6.50
2018-05-17T16:46:08.700Z,2.90
2018-05-17T16:48:37.129Z,2.63
2018-05-17T16:51:05.245Z,4.17
2018-05-17T16:53:33.412Z,4.37
2018-05-17T16:56:01.575Z,2.40
2018-05-17T16:58:29.809Z,2.27
2018-05-17T17:00:57.978Z,2.60
2018-05-17T17:03:26.153Z,2.70
2018-05-17T17:05:54.319Z,2.50
2018-05-17T17:08:22.504Z,3.53
2018-05-17T17:10:50.673Z,2.77
2018-05-17T17:13:18.854Z,2.70
2018-05-17T17:15:47.029Z,2.50
2018-05-17T17:18:15.980Z,2.27
2018-05-17T17:20:44.318Z,2.50
2018-05-17T17:23:13.263Z,2.43
2018-05-17T17:25:41.439Z,2.90
2018-05-17T17:28:09.608Z,3.50
2018-05-17T17:30:37.789Z,3.50
2018-05-17T17:33:05.967Z,3.80
2018-05-17T17:35:34.189Z,3.90
2018-05-17T17:38:03.125Z,3.70
2018-05-17T17:40:36.972Z,3.53
2018-05-17T17:43:05.282Z,4.37
2018-05-17T17:45:33.696Z,4.40
2018-05-17T17:48:01.861Z,3.67
2018-05-17T17:50:30.052Z,4.30
2018-05-17T17:52:58.554Z,3.30
2018-05-17T17:55:28.167Z,4.43
2018-05-17T17:57:56.409Z,5.40
2018-05-17T18:00:24.643Z,4.77
2018-05-17T18:02:52.831Z,4.30
2018-05-17T18:05:21.021Z,3.93
2018-05-17T18:07:49.201Z,4.83
2018-05-17T18:10:17.414Z,4.30
2018-05-17T18:12:45.595Z,4.47
2018-05-17T18:15:14.535Z,4.10
2018-05-17T18:17:42.732Z,8.77
2018-05-17T18:20:10.900Z,4.93
2018-05-17T18:22:39.068Z,5.87
2018-05-17T18:25:07.324Z,4.97
2018-05-17T18:27:35.510Z,4.47
2018-05-17T18:30:07.572Z,4.97
2018-05-17T18:32:35.897Z,4.63
2018-05-17T18:35:05.308Z,3.67
2018-05-17T18:37:34.256Z,4.47
2018-05-17T18:40:02.441Z,4.17
2018-05-17T18:42:31.017Z,4.77
2018-05-17T18:45:02.947Z,4.83
2018-05-17T18:47:31.123Z,4.70
2018-05-17T18:49:59.305Z,4.83
2018-05-17T18:52:27.748Z,5.10
2018-05-17T18:54:59.544Z,5.10
2018-05-17T18:57:27.734Z,4.70
2018-05-17T18:59:55.913Z,5.40
2018-05-17T19:02:27.265Z,5.07
2018-05-17T19:04:57.971Z,6.43
2018-05-17T19:07:31.656Z,5.13
2018-05-17T19:10:05.827Z,4.77
2018-05-17T19:12:33.992Z,5.10
2018-05-17T19:15:02.199Z,4.73
2018-05-17T19:17:35.260Z,4.90
2018-05-17T19:20:03.452Z,4.30
2018-05-17T19:22:34.277Z,5.20
2018-05-17T19:25:03.257Z,5.80
2018-05-17T19:27:33.076Z,5.70
2018-05-17T19:30:02.068Z,5.90
2018-05-17T19:32:30.251Z,6.97
2018-05-17T19:34:59.232Z,6.80
2018-05-17T19:37:31.380Z,6.23
2018-05-17T19:40:05.043Z,11.60
2018-05-17T19:42:36.976Z,16.13
2018-05-17T19:45:08.008Z,16.63
2018-05-17T19:47:38.195Z,9.10
2018-05-17T19:50:10.721Z,10.77
2018-05-17T19:52:40.828Z,5.00
2018-05-17T19:55:12.996Z,5.60
2018-05-17T19:57:42.942Z,4.50
2018-05-17T20:00:11.234Z,5.63
2018-05-17T20:02:40.186Z,4.90
2018-05-17T20:05:08.488Z,5.43
2018-05-17T20:07:36.678Z,5.23
2018-05-17T20:10:04.864Z,5.07
2018-05-17T20:12:33.816Z,5.43
2018-05-17T20:15:01.998Z,5.47
2018-05-17T20:17:30.171Z,5.63
2018-05-17T20:19:58.366Z,5.17
2018-05-17T20:22:26.541Z,5.60
2018-05-17T20:24:54.728Z,5.33
2018-05-17T20:27:23.692Z,5.93
2018-05-17T20:29:51.886Z,5.83
2018-05-17T20:32:20.838Z,6.07
2018-05-17T20:34:49.012Z,4.67
2018-05-17T20:37:17.179Z,5.50
2018-05-17T20:39:45.359Z,5.60
2018-05-17T20:42:13.531Z,6.40
2018-05-17T20:44:41.707Z,7.33
2018-05-17T20:47:09.889Z,5.90
2018-05-17T20:49:38.089Z,7.07
2018-05-17T20:52:06.302Z,8.80
2018-05-17T20:54:34.469Z,5.87
2018-05-17T20:57:03.423Z,7.73
2018-05-17T20:59:31.597Z,5.70
2018-05-17T21:01:59.777Z,5.83
2018-05-17T21:04:27.949Z,6.03
2018-05-17T21:06:56.119Z,6.00
2018-05-17T21:09:24.295Z,5.73
2018-05-17T21:11:52.476Z,4.90
2018-05-17T21:14:20.662Z,13.20
2018-05-17T21:16:48.847Z,10.97
2018-05-17T21:19:17.785Z,6.23
2018-05-17T21:21:45.959Z,5.20
2018-05-17T21:24:14.143Z,5.80
2018-05-17T21:26:42.314Z,9.73
2018-05-17T21:29:10.500Z,10.43
2018-05-17T21:31:38.698Z,7.23
2018-05-17T21:34:08.379Z,10.90
2018-05-17T21:36:36.557Z,11.83
2018-05-17T21:39:04.779Z,13.73
2018-05-17T21:41:33.726Z,8.77
2018-05-17T21:44:01.909Z,7.40
2018-05-17T21:46:30.078Z,7.77
2018-05-17T21:48:58.246Z,7.40
2018-05-17T21:51:26.430Z,7.67
2018-05-17T21:53:54.600Z,7.17
2018-05-17T21:56:22.778Z,7.30
2018-05-17T21:58:50.959Z,7.60
2018-05-17T22:01:19.128Z,6.43
2018-05-17T22:03:47.365Z,6.70
2018-05-17T22:06:15.551Z,7.30
2018-05-17T22:08:43.748Z,7.50
2018-05-17T22:11:11.918Z,6.80
2018-05-17T22:13:40.099Z,6.00
2018-05-17T22:16:08.285Z,7.53
2018-05-17T22:18:36.455Z,5.80
2018-05-17T22:21:04.666Z,6.77
2018-05-17T22:23:33.608Z,6.60
2018-05-17T22:26:01.778Z,6.30
2018-05-17T22:28:29.966Z,6.20
2018-05-17T22:30:58.582Z,5.60
2018-05-17T22:33:27.529Z,6.93
2018-05-17T22:35:55.791Z,5.50
2018-05-17T22:38:23.880Z,6.60
2018-05-17T22:40:52.040Z,5.90
2018-05-17T22:43:20.214Z,5.30
2018-05-17T22:45:48.384Z,5.80
2018-05-17T22:48:18.212Z,6.37
2018-05-17T22:50:46.397Z,5.60
2018-05-17T22:53:14.624Z,6.23
2018-05-17T22:55:43.522Z,5.90
2018-05-17T22:58:37.388Z,5.20
2018-05-17T23:01:06.335Z,5.67
2018-05-17T23:03:34.513Z,5.80
2018-05-17T23:06:02.681Z,5.07
2018-05-17T23:08:30.975Z,5.57
2018-05-17T23:10:59.116Z,6.37
2018-05-17T23:13:27.286Z,6.23
2018-05-17T23:15:55.470Z,4.90
2018-05-17T23:18:23.640Z,5.87
2018-05-17T23:20:51.834Z,5.77
2018-05-17T23:23:20.037Z,6.17
2018-05-17T23:25:48.213Z,4.83
2018-05-17T23:28:16.397Z,5.10
2018-05-17T23:30:45.337Z,5.17
2018-05-17T23:33:13.532Z,4.77
2018-05-17T23:35:41.705Z,5.70
2018-05-17T23:38:09.875Z,5.60
2018-05-17T23:41:16.533Z,5.50
2018-05-17T23:43:44.707Z,5.43
2018-05-17T23:46:12.868Z,5.23
2018-05-17T23:48:41.038Z,5.77
2018-05-17T23:51:09.210Z,5.90
2018-05-17T23:53:37.387Z,4.90
2018-05-17T23:56:05.550Z,6.50
2018-05-17T23:58:33.741Z,5.97
